createdAt,value
2018-09-07T00:01:56.432Z,12.90
2018-09-07T00:04:26.064Z,12.30
2018-09-07T00:06:55.256Z,11.20
2018-09-07T00:09:24.587Z,11.07
2018-09-07T00:11:53.860Z,12.03
2018-09-07T00:14:23.143Z,11.10
2018-09-07T00:16:52.620Z,10.27
2018-09-07T00:19:21.839Z,10.53
2018-09-07T00:21:51.148Z,11.23
2018-09-07T00:24:21.006Z,12.17
2018-09-07T00:26:50.168Z,11.70
2018-09-07T00:29:19.675Z,11.53
2018-09-07T00:31:48.811Z,11.00
2018-09-07T00:34:18.008Z,10.27
2018-09-07T00:36:47.297Z,12.87
2018-09-07T00:39:16.716Z,11.50
2018-09-07T00:41:45.960Z,11.03
2018-09-07T00:44:15.305Z,10.30
2018-09-07T00:46:44.608Z,10.77
2018-09-07T00:49:13.863Z,10.87
2018-09-07T00:51:43.001Z,11.20
2018-09-07T00:54:12.444Z,11.10
2018-09-07T00:56:41.848Z,12.27
2018-09-07T00:59:11.217Z,12.47
2018-09-07T01:01:40.520Z,10.80
2018-09-07T01:04:10.049Z,14.37
2018-09-07T01:06:39.583Z,11.67
2018-09-07T01:09:08.983Z,11.97
2018-09-07T01:11:38.372Z,12.43
2018-09-07T01:14:07.787Z,14.07
2018-09-07T01:16:37.076Z,12.57
2018-09-07T01:19:06.695Z,11.70
2018-09-07T01:21:36.115Z,12.07
2018-09-07T01:24:05.434Z,13.93
2018-09-07T01:26:34.694Z,12.87
2018-09-07T01:29:04.108Z,12.37
2018-09-07T01:31:33.359Z,13.10
2018-09-07T01:34:02.679Z,12.40
2018-09-07T01:36:32.045Z,13.07
2018-09-07T01:39:01.237Z,12.43
2018-09-07T01:41:30.343Z,12.97
2018-09-07T01:43:59.767Z,13.07
2018-09-07T01:46:29.717Z,13.30
2018-09-07T01:48:58.776Z,12.00
2018-09-07T01:51:27.932Z,11.00
2018-09-07T01:53:57.081Z,11.60
2018-09-07T01:56:26.623Z,11.97
2018-09-07T01:58:55.836Z,13.00
2018-09-07T02:01:25.037Z,12.77
2018-09-07T02:03:55.274Z,12.73
2018-09-07T02:06:24.887Z,11.17
2018-09-07T02:08:53.879Z,12.17
2018-09-07T02:11:22.949Z,14.13
2018-09-07T02:13:52.199Z,12.47
2018-09-07T02:16:21.339Z,13.00
2018-09-07T02:18:50.583Z,13.07
2018-09-07T02:21:19.878Z,11.57
2018-09-07T02:23:49.253Z,13.70
2018-09-07T02:26:18.387Z,12.37
2018-09-07T02:28:47.620Z,14.07
2018-09-07T02:31:17.653Z,13.67
2018-09-07T02:33:46.854Z,13.00
2018-09-07T02:36:16.064Z,13.80
2018-09-07T02:38:45.249Z,11.77
2018-09-07T02:41:14.488Z,12.70
2018-09-07T02:43:44.113Z,12.83
2018-09-07T02:46:13.220Z,11.80
2018-09-07T02:48:42.584Z,12.60
2018-09-07T02:51:11.744Z,14.97
2018-09-07T02:53:41.049Z,13.57
2018-09-07T02:56:10.190Z,13.03
2018-09-07T02:58:39.355Z,14.10
2018-09-07T03:01:08.660Z,12.20
2018-09-07T03:03:37.954Z,12.37
2018-09-07T03:06:07.391Z,12.73
2018-09-07T03:08:36.650Z,13.30
2018-09-07T03:11:06.137Z,12.30
2018-09-07T03:13:35.360Z,12.20
2018-09-07T03:16:05.095Z,13.60
2018-09-07T03:18:34.264Z,13.40
2018-09-07T03:21:03.724Z,13.10
2018-09-07T03:23:32.881Z,12.57
2018-09-07T03:26:02.094Z,14.50
2018-09-07T03:28:31.296Z,11.30
2018-09-07T03:31:00.704Z,12.57
2018-09-07T03:33:30.057Z,14.00
2018-09-07T03:35:59.455Z,13.50
2018-09-07T03:38:28.882Z,14.47
2018-09-07T03:40:58.286Z,15.80
2018-09-07T03:43:28.284Z,13.70
2018-09-07T03:45:57.558Z,15.43
2018-09-07T03:48:26.689Z,16.03
2018-09-07T03:50:55.938Z,15.83
2018-09-07T03:53:25.061Z,14.83
2018-09-07T03:55:54.314Z,15.40
2018-09-07T03:58:23.487Z,14.27
2018-09-07T04:00:52.984Z,15.30
2018-09-07T04:03:22.261Z,13.90
2018-09-07T04:05:51.671Z,14.87
2018-09-07T04:08:20.784Z,15.90
2018-09-07T04:10:49.977Z,14.77
2018-09-07T04:13:19.198Z,14.53
2018-09-07T04:15:48.524Z,15.50
2018-09-07T04:18:18.010Z,13.77
2018-09-07T04:20:47.152Z,16.20
2018-09-07T04:23:16.524Z,15.97
2018-09-07T04:25:45.663Z,13.67
2018-09-07T04:28:15.097Z,14.70
2018-09-07T04:30:44.256Z,15.50
2018-09-07T04:33:13.451Z,14.20
2018-09-07T04:35:42.766Z,15.20
2018-09-07T04:38:11.873Z,13.93
2018-09-07T04:40:41.168Z,16.40
2018-09-07T04:43:10.656Z,14.77
2018-09-07T04:45:40.044Z,14.70
2018-09-07T04:48:09.308Z,14.40
2018-09-07T04:50:38.884Z,13.40
2018-09-07T04:53:08.229Z,14.50
2018-09-07T04:55:37.396Z,13.83
2018-09-07T04:58:06.774Z,13.40
2018-09-07T05:00:36.004Z,15.23
2018-09-07T05:03:05.383Z,13.70
2018-09-07T05:05:34.787Z,14.57
2018-09-07T05:08:04.304Z,14.47
2018-09-07T05:10:33.487Z,16.33
2018-09-07T05:13:03.105Z,14.80
2018-09-07T05:15:32.476Z,13.87
2018-09-07T05:18:02.033Z,14.23
2018-09-07T05:20:31.627Z,15.03
2018-09-07T05:23:01.129Z,13.50
2018-09-07T05:25:30.487Z,14.00
2018-09-07T05:27:59.591Z,12.70
2018-09-07T05:30:28.781Z,13.10
2018-09-07T05:32:57.981Z,14.03
2018-09-07T05:35:27.163Z,12.87
2018-09-07T05:37:56.357Z,12.80
2018-09-07T05:40:25.452Z,13.97
2018-09-07T05:42:55.470Z,13.00
2018-09-07T05:45:24.738Z,15.17
2018-09-07T05:47:53.958Z,13.23
2018-09-07T05:50:23.329Z,12.90
2018-09-07T05:52:52.421Z,13.80
2018-09-07T05:55:21.828Z,10.97
2018-09-07T05:57:51.086Z,13.17
2018-09-07T06:00:20.932Z,14.47
2018-09-07T06:02:50.032Z,12.67
2018-09-07T06:05:19.262Z,13.50
2018-09-07T06:07:48.460Z,15.90
2018-09-07T06:10:17.666Z,12.73
2018-09-07T06:12:47.001Z,12.07
2018-09-07T06:15:16.352Z,13.27
2018-09-07T06:17:45.468Z,12.13
2018-09-07T06:20:14.680Z,12.80
2018-09-07T06:22:44.053Z,13.60
2018-09-07T06:25:13.279Z,12.73
2018-09-07T06:27:42.503Z,13.40
2018-09-07T06:30:11.584Z,13.77
2018-09-07T06:32:40.870Z,14.00
2018-09-07T06:35:09.988Z,13.00
2018-09-07T06:37:39.446Z,11.50
2018-09-07T06:40:08.670Z,14.00
2018-09-07T06:42:37.980Z,13.33
2018-09-07T06:45:07.323Z,13.07
2018-09-07T06:47:36.743Z,12.67
2018-09-07T06:50:06.480Z,12.43
2018-09-07T06:52:36.059Z,13.83
2018-09-07T06:55:05.616Z,11.50
2018-09-07T06:57:35.084Z,12.07
2018-09-07T07:00:04.460Z,11.87
2018-09-07T07:02:33.804Z,11.07
2018-09-07T07:05:03.118Z,12.70
2018-09-07T07:07:32.312Z,9.83
2018-09-07T07:10:01.721Z,11.80
2018-09-07T07:12:30.814Z,10.50
2018-09-07T07:15:00.180Z,10.90
2018-09-07T07:17:29.699Z,9.77
2018-09-07T07:19:58.924Z,8.80
2018-09-07T07:22:28.215Z,9.10
2018-09-07T07:24:57.463Z,8.00
2018-09-07T07:27:26.867Z,8.57
2018-09-07T07:29:56.121Z,8.80
2018-09-07T07:32:25.508Z,9.93
2018-09-07T07:34:54.923Z,10.57
2018-09-07T07:37:24.117Z,9.17
2018-09-07T07:39:53.425Z,8.33
2018-09-07T07:42:22.625Z,8.13
2018-09-07T07:44:51.920Z,7.47
2018-09-07T07:47:21.174Z,8.10
2018-09-07T07:49:50.338Z,8.37
2018-09-07T07:52:19.808Z,8.10
2018-09-07T07:54:49.500Z,7.80
2018-09-07T07:57:19.043Z,8.57
2018-09-07T07:59:49.255Z,7.33
2018-09-07T08:02:18.841Z,8.30
2018-09-07T08:04:47.957Z,7.77
2018-09-07T08:07:17.089Z,7.63
2018-09-07T08:09:46.567Z,8.00
2018-09-07T08:12:15.774Z,7.20
2018-09-07T08:14:44.869Z,7.50
2018-09-07T08:17:14.033Z,9.20
2018-09-07T08:19:43.191Z,8.93
2018-09-07T08:22:12.340Z,9.03
2018-09-07T08:24:41.671Z,8.60
2018-09-07T08:27:10.943Z,9.60
2018-09-07T08:29:40.344Z,9.50
2018-09-07T08:32:09.681Z,8.83
2018-09-07T08:34:38.935Z,7.90
2018-09-07T08:37:08.312Z,8.73
2018-09-07T08:39:37.541Z,9.70
2018-09-07T08:42:06.760Z,9.15
2018-09-07T08:44:36.165Z,8.50
2018-09-07T08:47:05.600Z,9.63
2018-09-07T08:49:34.949Z,11.03
2018-09-07T08:52:04.220Z,8.90
2018-09-07T08:54:33.421Z,11.07
2018-09-07T08:57:02.660Z,9.80
2018-09-07T08:59:32.796Z,9.40
2018-09-07T09:02:01.938Z,9.80
2018-09-07T09:04:30.961Z,9.80
2018-09-07T09:07:00.180Z,10.40
2018-09-07T09:09:29.524Z,9.90
2018-09-07T09:11:58.799Z,9.37
2018-09-07T09:14:28.091Z,9.90
2018-09-07T09:16:57.372Z,9.20
2018-09-07T09:19:26.792Z,9.30
2018-09-07T09:24:24.830Z,9.10
2018-09-07T09:26:54.072Z,7.37
2018-09-07T09:29:23.702Z,7.23
2018-09-07T09:46:44.103Z,5.57
2018-09-07T09:49:13.146Z,5.90
2018-09-07T09:51:42.303Z,5.07
2018-09-07T09:54:11.624Z,6.07
2018-09-07T09:56:40.743Z,5.23
2018-09-07T09:59:09.865Z,5.40
2018-09-07T10:01:44.435Z,4.87
2018-09-07T10:04:18.178Z,6.17
2018-09-07T10:06:47.781Z,5.90
2018-09-07T10:09:17.178Z,6.13
2018-09-07T10:11:46.511Z,6.67
2018-09-07T10:14:17.167Z,6.70
2018-09-07T10:16:46.880Z,7.97
2018-09-07T10:19:16.608Z,6.10
2018-09-07T10:21:45.978Z,7.53
2018-09-07T10:24:15.581Z,8.73
2018-09-07T10:26:44.969Z,8.73
2018-09-07T10:29:14.605Z,8.60
2018-09-07T10:31:44.035Z,9.07
2018-09-07T10:34:13.345Z,9.37
2018-09-07T10:36:42.803Z,8.80
2018-09-07T10:39:12.098Z,8.50
2018-09-07T10:41:41.411Z,7.93
2018-09-07T10:44:10.648Z,7.70
2018-09-07T10:49:08.449Z,5.37
2018-09-07T10:51:38.165Z,4.93
2018-09-07T10:54:07.639Z,4.90
2018-09-07T10:56:37.274Z,4.87
2018-09-07T10:59:06.591Z,5.17
2018-09-07T11:01:36.124Z,5.57
2018-09-07T11:04:05.315Z,5.60
2018-09-07T11:06:34.584Z,5.77
2018-09-07T11:09:04.636Z,4.47
2018-09-07T11:11:33.732Z,4.53
2018-09-07T11:14:02.894Z,4.00
2018-09-07T11:16:31.863Z,4.93
2018-09-07T11:19:01.087Z,4.87
2018-09-07T11:21:30.636Z,5.40
2018-09-07T11:23:59.691Z,4.07
2018-09-07T11:26:28.924Z,4.63
2018-09-07T11:28:58.067Z,4.33
2018-09-07T11:31:27.395Z,4.40
2018-09-07T11:33:56.930Z,4.77
2018-09-07T11:36:26.240Z,4.47
2018-09-07T11:38:55.388Z,4.40
2018-09-07T11:41:24.610Z,4.80
2018-09-07T11:43:53.862Z,5.60
2018-09-07T11:46:27.720Z,5.67
2018-09-07T11:48:57.317Z,4.93
2018-09-07T11:51:26.800Z,4.80
2018-09-07T11:56:24.897Z,3.70
2018-09-07T12:01:22.595Z,3.37
2018-09-07T12:03:52.041Z,3.53
2018-09-07T12:06:21.332Z,3.70
2018-09-07T12:08:51.232Z,3.43
2018-09-07T12:11:20.972Z,3.80
2018-09-07T12:13:50.472Z,3.83
2018-09-07T12:16:19.880Z,3.47
2018-09-07T12:18:49.366Z,3.80
2018-09-07T12:21:18.704Z,3.40
2018-09-07T12:23:48.094Z,2.90
2018-09-07T12:26:17.532Z,3.20
2018-09-07T12:28:46.981Z,3.00
2018-09-07T12:31:17.031Z,3.13
2018-09-07T12:33:46.711Z,3.60
2018-09-07T12:36:15.973Z,2.90
2018-09-07T12:38:45.551Z,3.40
2018-09-07T12:41:16.036Z,4.03
2018-09-07T12:43:45.354Z,3.90
2018-09-07T12:46:15.254Z,3.50
2018-09-07T12:48:45.152Z,4.30
2018-09-07T12:51:14.852Z,3.93
2018-09-07T12:53:45.762Z,3.87
2018-09-07T12:56:16.332Z,4.10
2018-09-07T12:58:48.591Z,4.40
2018-09-07T13:01:17.773Z,4.10
2018-09-07T13:03:46.926Z,5.07
2018-09-07T13:06:16.339Z,4.90
2018-09-07T13:08:45.819Z,4.40
2018-09-07T13:11:15.711Z,4.30
2018-09-07T13:13:46.088Z,4.47
2018-09-07T13:16:15.357Z,3.80
2018-09-07T13:18:45.380Z,4.50
2018-09-07T13:21:15.283Z,3.90
2018-09-07T13:23:45.301Z,4.03
2018-09-07T13:26:15.065Z,3.20
2018-09-07T13:28:44.543Z,3.40
2018-09-07T13:31:14.481Z,3.93
2018-09-07T13:33:44.737Z,4.17
2018-09-07T13:36:14.793Z,3.80
2018-09-07T13:38:45.281Z,3.53
2018-09-07T13:41:14.604Z,3.50
2018-09-07T13:43:44.239Z,2.73
2018-09-07T13:46:13.717Z,3.33
2018-09-07T13:48:43.063Z,3.67
2018-09-07T13:51:12.214Z,3.00
2018-09-07T13:53:41.853Z,3.43
2018-09-07T13:56:11.175Z,3.70
2018-09-07T13:58:40.397Z,3.20
2018-09-07T14:01:09.697Z,3.47
2018-09-07T14:03:38.988Z,3.30
2018-09-07T14:06:08.455Z,4.00
2018-09-07T14:08:38.067Z,3.90
2018-09-07T14:11:07.396Z,3.00
2018-09-07T14:13:36.795Z,3.17
2018-09-07T14:16:06.562Z,3.37
2018-09-07T14:18:35.797Z,3.30
2018-09-07T14:21:05.490Z,3.00
2018-09-07T14:23:34.836Z,3.50
2018-09-07T14:26:04.232Z,3.10
2018-09-07T14:28:33.612Z,2.90
2018-09-07T14:31:03.408Z,3.30
2018-09-07T14:33:33.049Z,4.83
2018-09-07T14:36:02.631Z,3.23
2018-09-07T14:38:32.367Z,3.40
2018-09-07T14:41:02.401Z,3.20
2018-09-07T14:43:32.601Z,3.30
2018-09-07T14:46:02.571Z,2.77
2018-09-07T14:48:32.582Z,2.93
2018-09-07T14:51:02.116Z,2.63
2018-09-07T14:53:32.011Z,2.27
2018-09-07T14:56:01.382Z,2.60
2018-09-07T14:58:30.881Z,2.80
2018-09-07T15:01:00.786Z,2.70
2018-09-07T15:03:30.596Z,3.00
2018-09-07T15:05:59.961Z,2.43
2018-09-07T15:08:29.268Z,2.73
2018-09-07T15:10:58.456Z,2.43
2018-09-07T15:13:27.692Z,2.17
2018-09-07T15:15:57.217Z,2.63
2018-09-07T15:18:26.555Z,2.63
2018-09-07T15:20:55.958Z,2.20
2018-09-07T15:23:25.314Z,2.50
2018-09-07T15:25:54.632Z,2.20
2018-09-07T15:28:24.129Z,2.50
2018-09-07T15:30:53.585Z,1.93
2018-09-07T15:33:23.011Z,2.40
2018-09-07T15:35:52.357Z,2.07
2018-09-07T15:38:21.912Z,2.80
2018-09-07T15:40:51.242Z,1.87
2018-09-07T15:43:20.498Z,1.77
2018-09-07T15:45:49.932Z,1.70
2018-09-07T15:48:19.510Z,1.70
2018-09-07T15:50:49.053Z,1.67
2018-09-07T15:53:18.552Z,2.53
2018-09-07T15:55:48.167Z,1.83
2018-09-07T15:58:17.926Z,1.80
2018-09-07T16:00:47.708Z,2.57
2018-09-07T16:03:17.400Z,2.57
2018-09-07T16:05:47.204Z,2.30
2018-09-07T16:08:17.114Z,2.20
2018-09-07T16:10:47.011Z,1.90
2018-09-07T16:13:16.534Z,2.20
2018-09-07T16:15:46.489Z,2.40
2018-09-07T16:18:15.896Z,2.20
2018-09-07T16:20:45.980Z,2.10
2018-09-07T16:23:15.510Z,2.10
2018-09-07T16:25:45.170Z,1.90
2018-09-07T16:28:14.632Z,1.63
2018-09-07T16:30:43.981Z,1.70
2018-09-07T16:33:13.432Z,1.87
2018-09-07T16:35:42.774Z,1.77
2018-09-07T16:38:12.267Z,1.80
2018-09-07T16:40:41.683Z,2.00
2018-09-07T16:43:11.134Z,2.13
2018-09-07T16:45:40.583Z,2.40
2018-09-07T16:48:10.313Z,1.93
2018-09-07T16:50:39.716Z,1.63
2018-09-07T16:53:09.194Z,1.60
2018-09-07T16:55:38.625Z,2.43
2018-09-07T16:58:08.209Z,2.20
2018-09-07T17:00:37.853Z,1.97
2018-09-07T17:03:07.356Z,2.07
2018-09-07T17:05:37.160Z,1.90
2018-09-07T17:08:06.553Z,2.13
2018-09-07T17:10:36.688Z,1.50
2018-09-07T17:13:06.515Z,2.03
2018-09-07T17:15:36.818Z,1.87
2018-09-07T17:18:06.776Z,1.83
2018-09-07T17:20:36.691Z,1.70
2018-09-07T17:23:06.664Z,2.20
2018-09-07T17:25:36.305Z,2.03
2018-09-07T17:28:05.760Z,2.20
2018-09-07T17:30:35.062Z,2.13
2018-09-07T17:33:04.471Z,1.97
2018-09-07T17:35:33.803Z,2.17
2018-09-07T17:38:03.016Z,2.83
2018-09-07T17:40:32.330Z,2.50
2018-09-07T17:43:01.720Z,1.83
2018-09-07T17:45:31.062Z,1.80
2018-09-07T17:48:00.662Z,2.00
2018-09-07T17:50:30.036Z,2.33
2018-09-07T17:52:59.424Z,2.00
2018-09-07T17:55:29.173Z,1.80
2018-09-07T17:57:59.479Z,1.90
2018-09-07T18:00:29.097Z,2.07
2018-09-07T18:02:58.893Z,2.10
2018-09-07T18:05:31.020Z,2.07
2018-09-07T18:08:00.275Z,2.27
2018-09-07T18:10:29.813Z,2.17
2018-09-07T18:12:59.125Z,1.77
2018-09-07T18:15:28.602Z,2.87
2018-09-07T18:17:57.999Z,1.77
2018-09-07T18:20:27.367Z,2.13
2018-09-07T18:22:56.718Z,1.80
2018-09-07T18:25:26.017Z,2.10
2018-09-07T18:27:55.381Z,1.93
2018-09-07T18:30:24.791Z,1.97
2018-09-07T18:32:54.416Z,1.83
2018-09-07T18:35:24.106Z,2.10
2018-09-07T18:37:53.370Z,1.90
2018-09-07T18:40:22.621Z,1.70
2018-09-07T18:42:52.174Z,1.60
2018-09-07T18:45:21.679Z,1.90
2018-09-07T18:47:51.572Z,2.17
2018-09-07T18:50:21.117Z,2.07
2018-09-07T18:52:50.664Z,1.80
2018-09-07T18:55:20.376Z,2.20
2018-09-07T18:57:50.227Z,1.60
2018-09-07T19:00:19.810Z,1.73
2018-09-07T19:02:49.385Z,1.90
2018-09-07T19:05:19.081Z,2.33
2018-09-07T19:07:48.765Z,3.23
2018-09-07T19:10:18.203Z,2.47
2018-09-07T19:12:48.018Z,2.10
2018-09-07T19:15:18.129Z,1.93
2018-09-07T19:17:47.619Z,2.70
2018-09-07T19:20:16.965Z,2.20
2018-09-07T19:22:46.195Z,2.20
2018-09-07T19:25:15.733Z,2.37
2018-09-07T19:27:45.015Z,1.90
2018-09-07T19:30:14.354Z,2.40
2018-09-07T19:32:43.813Z,1.87
2018-09-07T19:35:13.225Z,2.00
2018-09-07T19:37:42.635Z,2.03
2018-09-07T19:40:12.090Z,1.90
2018-09-07T19:42:41.327Z,1.93
2018-09-07T19:45:10.561Z,2.80
2018-09-07T19:47:40.027Z,2.97
2018-09-07T19:50:09.545Z,1.90
2018-09-07T19:52:39.216Z,2.10
2018-09-07T19:55:08.520Z,2.30
2018-09-07T19:57:37.871Z,2.20
2018-09-07T20:00:07.290Z,2.30
2018-09-07T20:02:36.313Z,2.20
2018-09-07T20:05:05.473Z,2.37
2018-09-07T20:07:34.590Z,2.43
2018-09-07T20:10:03.816Z,2.50
2018-09-07T20:12:32.887Z,1.90
2018-09-07T20:15:01.959Z,2.20
2018-09-07T20:17:31.244Z,2.60
2018-09-07T20:20:00.374Z,2.07
2018-09-07T20:22:29.446Z,2.67
2018-09-07T20:24:58.524Z,1.77
2018-09-07T20:27:27.739Z,2.50
2018-09-07T20:29:56.936Z,2.00
2018-09-07T20:32:26.110Z,1.60
2018-09-07T20:34:55.228Z,2.00
2018-09-07T20:37:24.408Z,2.30
2018-09-07T20:39:53.545Z,2.10
2018-09-07T20:42:22.720Z,2.20
2018-09-07T20:44:51.857Z,2.80
2018-09-07T20:47:21.091Z,2.20
2018-09-07T20:49:50.296Z,2.13
2018-09-07T20:52:19.652Z,2.53
2018-09-07T20:54:49.105Z,2.13
2018-09-07T20:57:18.467Z,2.17
2018-09-07T20:59:47.590Z,2.33
2018-09-07T21:02:16.848Z,2.30
2018-09-07T21:04:45.970Z,2.23
2018-09-07T21:07:15.085Z,2.50
2018-09-07T21:09:44.176Z,3.10
2018-09-07T21:12:13.538Z,2.93
2018-09-07T21:14:42.719Z,3.30
2018-09-07T21:17:11.993Z,3.90
2018-09-07T21:19:41.148Z,3.00
2018-09-07T21:22:10.488Z,3.20
2018-09-07T21:24:39.793Z,3.10
2018-09-07T21:27:08.859Z,2.87
2018-09-07T21:29:38.076Z,3.63
2018-09-07T21:32:07.466Z,2.93
2018-09-07T21:34:37.283Z,2.57
2018-09-07T21:37:06.781Z,2.23
2018-09-07T21:39:35.899Z,2.30
2018-09-07T21:42:05.254Z,2.30
2018-09-07T21:44:34.501Z,2.40
2018-09-07T21:47:03.761Z,1.97
2018-09-07T21:49:32.985Z,1.90
2018-09-07T21:52:02.211Z,2.10
2018-09-07T21:54:31.268Z,2.90
2018-09-07T21:57:00.498Z,2.40
2018-09-07T21:59:29.668Z,2.47
2018-09-07T22:01:59.002Z,2.50
2018-09-07T22:04:28.167Z,2.33
2018-09-07T22:07:02.907Z,3.60
2018-09-07T22:09:35.252Z,3.47
2018-09-07T22:12:06.309Z,3.23
2018-09-07T22:27:34.916Z,3.17
2018-09-07T22:30:04.190Z,2.70
2018-09-07T22:32:33.456Z,2.87
2018-09-07T22:35:02.752Z,2.47
2018-09-07T22:37:31.800Z,2.60
2018-09-07T22:40:00.921Z,2.73
2018-09-07T22:42:30.088Z,3.00
2018-09-07T22:44:59.497Z,2.70
2018-09-07T22:47:29.324Z,2.33
2018-09-07T22:49:58.411Z,2.37
2018-09-07T22:52:27.564Z,2.70
2018-09-07T22:54:56.770Z,3.07
2018-09-07T22:57:26.228Z,2.93
2018-09-07T22:59:55.409Z,2.60
2018-09-07T23:02:24.688Z,3.00
2018-09-07T23:04:53.900Z,2.87
2018-09-07T23:07:23.098Z,2.80
2018-09-07T23:09:52.459Z,3.00
2018-09-07T23:12:21.821Z,2.70
2018-09-07T23:14:51.269Z,2.67
2018-09-07T23:17:20.737Z,2.60
2018-09-07T23:19:49.852Z,2.97
2018-09-07T23:22:19.281Z,2.97
2018-09-07T23:24:48.476Z,3.30
2018-09-07T23:27:18.474Z,3.10
2018-09-07T23:29:47.545Z,3.10
2018-09-07T23:32:16.707Z,3.07
2018-09-07T23:34:45.771Z,2.97
2018-09-07T23:37:15.105Z,3.23
2018-09-07T23:39:44.217Z,3.33
2018-09-07T23:42:13.402Z,3.40
2018-09-07T23:44:42.612Z,3.67
2018-09-07T23:47:11.851Z,3.83
2018-09-07T23:49:41.286Z,3.93
2018-09-07T23:52:10.769Z,3.17
2018-09-07T23:54:39.919Z,4.33
2018-09-07T23:57:09.194Z,3.37
2018-09-07T23:59:38.408Z,3.50
